sensor_id;sensor_type;location;lat;lon;timestamp;P1;durP1;ratioP1;P2;durP2;ratioP2
69765;SDS011;57039;48.014;21.384;2023-12-20T00:00:41;22.17;;;9.43;;
69765;SDS011;57039;48.014;21.384;2023-12-20T00:01:44;25.80;;;9.85;;
69765;SDS011;57039;48.014;21.384;2023-12-20T00:02:47;20.35;;;9.70;;
69765;SDS011;57039;48.014;21.384;2023-12-20T00:03:50;23.48;;;9.52;;
69765;SDS011;57039;48.014;21.384;2023-12-20T00:04:53;24.23;;;10.25;;
69765;SDS011;57039;48.014;21.384;2023-12-20T00:05:56;25.15;;;10.27;;
69765;SDS011;57039;48.014;21.384;2023-12-20T00:07:00;22.33;;;10.15;;
69765;SDS011;57039;48.014;21.384;2023-12-20T00:08:04;22.77;;;9.65;;
69765;SDS011;57039;48.014;21.384;2023-12-20T00:09:08;24.20;;;10.50;;
69765;SDS011;57039;48.014;21.384;2023-12-20T00:10:11;22.50;;;9.77;;
69765;SDS011;57039;48.014;21.384;2023-12-20T00:11:15;27.60;;;11.17;;
69765;SDS011;57039;48.014;21.384;2023-12-20T00:12:18;22.95;;;10.07;;
69765;SDS011;57039;48.014;21.384;2023-12-20T00:13:21;24.77;;;9.98;;
69765;SDS011;57039;48.014;21.384;2023-12-20T00:14:24;23.30;;;10.10;;
69765;SDS011;57039;48.014;21.384;2023-12-20T00:15:27;23.20;;;10.20;;
69765;SDS011;57039;48.014;21.384;2023-12-20T00:16:29;22.90;;;10.35;;
69765;SDS011;57039;48.014;21.384;2023-12-20T00:17:34;22.87;;;10.20;;
69765;SDS011;57039;48.014;21.384;2023-12-20T00:18:37;24.67;;;10.73;;
69765;SDS011;57039;48.014;21.384;2023-12-20T00:19:40;24.58;;;10.05;;
69765;SDS011;57039;48.014;21.384;2023-12-20T00:20:43;24.40;;;10.25;;
69765;SDS011;57039;48.014;21.384;2023-12-20T00:21:46;23.60;;;9.90;;
69765;SDS011;57039;48.014;21.384;2023-12-20T00:22:49;23.77;;;10.27;;
69765;SDS011;57039;48.014;21.384;2023-12-20T00:23:53;23.65;;;9.90;;
69765;SDS011;57039;48.014;21.384;2023-12-20T00:24:55;23.45;;;10.77;;
69765;SDS011;57039;48.014;21.384;2023-12-20T00:25:58;24.42;;;10.82;;
69765;SDS011;57039;48.014;21.384;2023-12-20T00:27:01;26.48;;;11.43;;
69765;SDS011;57039;48.014;21.384;2023-12-20T00:28:05;23.20;;;10.10;;
69765;SDS011;57039;48.014;21.384;2023-12-20T00:29:08;21.98;;;9.60;;
69765;SDS011;57039;48.014;21.384;2023-12-20T00:30:11;24.12;;;9.98;;
69765;SDS011;57039;48.014;21.384;2023-12-20T00:31:14;22.83;;;9.27;;
69765;SDS011;57039;48.014;21.384;2023-12-20T00:32:17;23.57;;;9.30;;
69765;SDS011;57039;48.014;21.384;2023-12-20T00:33:20;21.73;;;9.02;;
69765;SDS011;57039;48.014;21.384;2023-12-20T00:34:24;21.83;;;9.85;;
69765;SDS011;57039;48.014;21.384;2023-12-20T00:35:27;22.13;;;10.05;;
69765;SDS011;57039;48.014;21.384;2023-12-20T00:36:29;22.40;;;9.73;;
69765;SDS011;57039;48.014;21.384;2023-12-20T00:37:32;24.00;;;10.38;;
69765;SDS011;57039;48.014;21.384;2023-12-20T00:38:35;22.40;;;9.45;;
69765;SDS011;57039;48.014;21.384;2023-12-20T00:39:38;22.00;;;9.63;;
69765;SDS011;57039;48.014;21.384;2023-12-20T00:40:41;23.27;;;10.65;;
69765;SDS011;57039;48.014;21.384;2023-12-20T00:41:44;21.85;;;9.30;;
69765;SDS011;57039;48.014;21.384;2023-12-20T00:42:47;21.83;;;9.40;;
69765;SDS011;57039;48.014;21.384;2023-12-20T00:43:51;23.55;;;10.05;;
69765;SDS011;57039;48.014;21.384;2023-12-20T00:44:53;22.30;;;9.73;;
69765;SDS011;57039;48.014;21.384;2023-12-20T00:45:56;22.67;;;9.35;;
69765;SDS011;57039;48.014;21.384;2023-12-20T00:46:59;21.75;;;10.27;;
69765;SDS011;57039;48.014;21.384;2023-12-20T00:48:03;21.67;;;9.55;;
69765;SDS011;57039;48.014;21.384;2023-12-20T00:49:06;20.88;;;9.30;;
69765;SDS011;57039;48.014;21.384;2023-12-20T00:50:09;21.17;;;9.65;;
69765;SDS011;57039;48.014;21.384;2023-12-20T00:51:12;23.35;;;9.85;;
69765;SDS011;57039;48.014;21.384;2023-12-20T00:52:15;23.83;;;10.48;;
69765;SDS011;57039;48.014;21.384;2023-12-20T00:53:20;20.93;;;9.43;;
69765;SDS011;57039;48.014;21.384;2023-12-20T00:54:23;21.55;;;9.40;;
69765;SDS011;57039;48.014;21.384;2023-12-20T00:55:25;20.55;;;8.75;;
69765;SDS011;57039;48.014;21.384;2023-12-20T00:56:28;22.10;;;9.18;;
69765;SDS011;57039;48.014;21.384;2023-12-20T00:57:31;21.87;;;9.88;;
69765;SDS011;57039;48.014;21.384;2023-12-20T00:58:34;25.80;;;9.88;;
69765;SDS011;57039;48.014;21.384;2023-12-20T00:59:37;22.02;;;10.10;;
69765;SDS011;57039;48.014;21.384;2023-12-20T01:00:40;22.58;;;9.63;;
69765;SDS011;57039;48.014;21.384;2023-12-20T01:01:46;22.65;;;9.18;;
69765;SDS011;57039;48.014;21.384;2023-12-20T01:02:49;23.65;;;10.90;;
69765;SDS011;57039;48.014;21.384;2023-12-20T01:03:54;22.77;;;9.00;;
69765;SDS011;57039;48.014;21.384;2023-12-20T01:04:58;23.35;;;10.00;;
69765;SDS011;57039;48.014;21.384;2023-12-20T01:06:01;21.75;;;9.55;;
69765;SDS011;57039;48.014;21.384;2023-12-20T01:07:04;21.33;;;9.93;;
69765;SDS011;57039;48.014;21.384;2023-12-20T01:08:07;21.90;;;9.57;;
69765;SDS011;57039;48.014;21.384;2023-12-20T01:09:10;20.77;;;9.43;;
69765;SDS011;57039;48.014;21.384;2023-12-20T01:10:13;20.40;;;9.80;;
69765;SDS011;57039;48.014;21.384;2023-12-20T01:11:16;23.95;;;9.50;;
69765;SDS011;57039;48.014;21.384;2023-12-20T01:12:18;23.33;;;9.70;;
69765;SDS011;57039;48.014;21.384;2023-12-20T01:13:22;25.80;;;11.25;;
69765;SDS011;57039;48.014;21.384;2023-12-20T01:14:25;23.97;;;10.53;;
69765;SDS011;57039;48.014;21.384;2023-12-20T01:15:28;26.58;;;11.45;;
69765;SDS011;57039;48.014;21.384;2023-12-20T01:16:31;23.60;;;10.02;;
69765;SDS011;57039;48.014;21.384;2023-12-20T01:17:34;24.35;;;10.65;;
69765;SDS011;57039;48.014;21.384;2023-12-20T01:18:37;23.77;;;9.82;;
69765;SDS011;57039;48.014;21.384;2023-12-20T01:19:41;21.00;;;9.70;;
69765;SDS011;57039;48.014;21.384;2023-12-20T01:20:44;22.62;;;9.85;;
69765;SDS011;57039;48.014;21.384;2023-12-20T01:21:47;24.52;;;10.98;;
69765;SDS011;57039;48.014;21.384;2023-12-20T01:22:50;23.00;;;10.63;;
69765;SDS011;57039;48.014;21.384;2023-12-20T01:23:53;22.20;;;10.98;;
69765;SDS011;57039;48.014;21.384;2023-12-20T01:24:56;25.43;;;10.47;;
69765;SDS011;57039;48.014;21.384;2023-12-20T01:25:59;22.67;;;10.40;;
69765;SDS011;57039;48.014;21.384;2023-12-20T01:27:02;23.83;;;10.63;;
69765;SDS011;57039;48.014;21.384;2023-12-20T01:28:05;24.70;;;10.27;;
69765;SDS011;57039;48.014;21.384;2023-12-20T01:29:08;22.13;;;9.65;;
69765;SDS011;57039;48.014;21.384;2023-12-20T01:30:12;23.30;;;10.55;;
69765;SDS011;57039;48.014;21.384;2023-12-20T01:31:15;23.87;;;10.35;;
69765;SDS011;57039;48.014;21.384;2023-12-20T01:32:18;23.98;;;11.20;;
69765;SDS011;57039;48.014;21.384;2023-12-20T01:33:21;23.50;;;10.45;;
69765;SDS011;57039;48.014;21.384;2023-12-20T01:34:24;25.10;;;11.48;;
69765;SDS011;57039;48.014;21.384;2023-12-20T01:35:27;24.20;;;10.10;;
69765;SDS011;57039;48.014;21.384;2023-12-20T01:36:30;24.15;;;10.65;;
69765;SDS011;57039;48.014;21.384;2023-12-20T01:37:33;23.67;;;9.98;;
69765;SDS011;57039;48.014;21.384;2023-12-20T01:38:36;22.33;;;10.40;;
69765;SDS011;57039;48.014;21.384;2023-12-20T01:39:38;23.85;;;11.10;;
69765;SDS011;57039;48.014;21.384;2023-12-20T01:40:41;25.35;;;11.15;;
69765;SDS011;57039;48.014;21.384;2023-12-20T01:41:44;23.92;;;11.15;;
69765;SDS011;57039;48.014;21.384;2023-12-20T01:42:57;23.85;;;10.70;;
69765;SDS011;57039;48.014;21.384;2023-12-20T01:44:04;23.70;;;10.63;;
69765;SDS011;57039;48.014;21.384;2023-12-20T01:45:07;24.23;;;10.55;;
69765;SDS011;57039;48.014;21.384;2023-12-20T01:46:10;23.83;;;10.30;;
69765;SDS011;57039;48.014;21.384;2023-12-20T01:47:13;24.40;;;10.80;;
69765;SDS011;57039;48.014;21.384;2023-12-20T01:48:18;23.02;;;11.20;;
69765;SDS011;57039;48.014;21.384;2023-12-20T01:49:22;24.08;;;10.70;;
69765;SDS011;57039;48.014;21.384;2023-12-20T01:50:26;24.92;;;10.68;;
69765;SDS011;57039;48.014;21.384;2023-12-20T01:51:30;23.40;;;10.60;;
69765;SDS011;57039;48.014;21.384;2023-12-20T01:52:33;25.37;;;11.15;;
69765;SDS011;57039;48.014;21.384;2023-12-20T01:53:37;26.10;;;12.07;;
69765;SDS011;57039;48.014;21.384;2023-12-20T01:54:41;25.67;;;10.63;;
69765;SDS011;57039;48.014;21.384;2023-12-20T01:55:45;23.00;;;10.57;;
69765;SDS011;57039;48.014;21.384;2023-12-20T01:56:50;25.53;;;10.53;;
69765;SDS011;57039;48.014;21.384;2023-12-20T01:57:53;24.90;;;10.70;;
69765;SDS011;57039;48.014;21.384;2023-12-20T01:58:56;22.55;;;10.02;;
69765;SDS011;57039;48.014;21.384;2023-12-20T01:59:59;21.08;;;10.57;;
69765;SDS011;57039;48.014;21.384;2023-12-20T02:01:02;21.48;;;10.52;;
69765;SDS011;57039;48.014;21.384;2023-12-20T02:02:06;23.80;;;10.35;;
69765;SDS011;57039;48.014;21.384;2023-12-20T02:03:10;22.90;;;10.07;;
69765;SDS011;57039;48.014;21.384;2023-12-20T02:04:14;21.83;;;10.40;;
69765;SDS011;57039;48.014;21.384;2023-12-20T02:05:18;23.80;;;10.63;;
69765;SDS011;57039;48.014;21.384;2023-12-20T02:06:21;21.30;;;9.90;;
69765;SDS011;57039;48.014;21.384;2023-12-20T02:07:25;21.20;;;9.73;;
69765;SDS011;57039;48.014;21.384;2023-12-20T02:08:29;23.02;;;10.77;;
69765;SDS011;57039;48.014;21.384;2023-12-20T02:09:33;22.17;;;9.90;;
69765;SDS011;57039;48.014;21.384;2023-12-20T02:10:36;23.42;;;10.02;;
69765;SDS011;57039;48.014;21.384;2023-12-20T02:11:38;25.20;;;11.35;;
69765;SDS011;57039;48.014;21.384;2023-12-20T02:12:42;24.08;;;11.23;;
69765;SDS011;57039;48.014;21.384;2023-12-20T02:13:44;23.55;;;11.00;;
69765;SDS011;57039;48.014;21.384;2023-12-20T02:14:48;23.20;;;11.43;;
69765;SDS011;57039;48.014;21.384;2023-12-20T02:15:51;24.02;;;11.70;;
69765;SDS011;57039;48.014;21.384;2023-12-20T02:16:55;25.12;;;11.70;;
69765;SDS011;57039;48.014;21.384;2023-12-20T02:17:58;24.63;;;11.53;;
69765;SDS011;57039;48.014;21.384;2023-12-20T02:19:03;22.52;;;10.30;;
69765;SDS011;57039;48.014;21.384;2023-12-20T02:20:10;25.42;;;11.02;;
69765;SDS011;57039;48.014;21.384;2023-12-20T02:21:14;24.73;;;11.75;;
69765;SDS011;57039;48.014;21.384;2023-12-20T02:22:17;25.33;;;11.70;;
69765;SDS011;57039;48.014;21.384;2023-12-20T02:23:20;25.45;;;11.48;;
69765;SDS011;57039;48.014;21.384;2023-12-20T02:24:23;24.27;;;10.93;;
69765;SDS011;57039;48.014;21.384;2023-12-20T02:25:26;25.88;;;11.48;;
69765;SDS011;57039;48.014;21.384;2023-12-20T02:26:29;24.67;;;11.50;;
69765;SDS011;57039;48.014;21.384;2023-12-20T02:27:34;24.67;;;11.18;;
69765;SDS011;57039;48.014;21.384;2023-12-20T02:28:38;25.20;;;11.30;;
69765;SDS011;57039;48.014;21.384;2023-12-20T02:29:40;25.08;;;12.15;;
69765;SDS011;57039;48.014;21.384;2023-12-20T02:30:43;22.92;;;11.07;;
69765;SDS011;57039;48.014;21.384;2023-12-20T02:31:46;24.50;;;11.05;;
69765;SDS011;57039;48.014;21.384;2023-12-20T02:32:49;25.60;;;11.65;;
69765;SDS011;57039;48.014;21.384;2023-12-20T02:33:52;23.20;;;11.90;;
69765;SDS011;57039;48.014;21.384;2023-12-20T02:34:55;26.60;;;11.88;;
69765;SDS011;57039;48.014;21.384;2023-12-20T02:35:59;27.67;;;11.75;;
69765;SDS011;57039;48.014;21.384;2023-12-20T02:37:02;25.27;;;11.27;;
69765;SDS011;57039;48.014;21.384;2023-12-20T02:38:05;26.92;;;11.70;;
69765;SDS011;57039;48.014;21.384;2023-12-20T02:39:08;25.07;;;12.10;;
69765;SDS011;57039;48.014;21.384;2023-12-20T02:40:11;27.52;;;12.52;;
69765;SDS011;57039;48.014;21.384;2023-12-20T02:41:14;25.15;;;11.43;;
69765;SDS011;57039;48.014;21.384;2023-12-20T02:42:20;38.05;;;14.43;;
69765;SDS011;57039;48.014;21.384;2023-12-20T02:43:23;27.02;;;13.13;;
69765;SDS011;57039;48.014;21.384;2023-12-20T02:44:26;25.70;;;11.80;;
69765;SDS011;57039;48.014;21.384;2023-12-20T02:45:29;26.37;;;12.05;;
69765;SDS011;57039;48.014;21.384;2023-12-20T02:46:32;26.58;;;12.43;;
69765;SDS011;57039;48.014;21.384;2023-12-20T02:47:35;29.25;;;13.43;;
69765;SDS011;57039;48.014;21.384;2023-12-20T02:48:38;27.30;;;12.23;;
69765;SDS011;57039;48.014;21.384;2023-12-20T02:49:41;28.87;;;12.03;;
69765;SDS011;57039;48.014;21.384;2023-12-20T02:50:45;27.13;;;12.23;;
69765;SDS011;57039;48.014;21.384;2023-12-20T02:51:50;27.08;;;12.57;;
69765;SDS011;57039;48.014;21.384;2023-12-20T02:52:53;28.30;;;12.88;;
69765;SDS011;57039;48.014;21.384;2023-12-20T02:53:56;27.15;;;13.40;;
69765;SDS011;57039;48.014;21.384;2023-12-20T02:54:59;28.02;;;12.65;;
69765;SDS011;57039;48.014;21.384;2023-12-20T02:56:02;27.25;;;12.30;;
69765;SDS011;57039;48.014;21.384;2023-12-20T02:57:05;27.30;;;12.15;;
69765;SDS011;57039;48.014;21.384;2023-12-20T02:58:09;29.80;;;13.60;;
69765;SDS011;57039;48.014;21.384;2023-12-20T02:59:12;28.00;;;12.70;;
69765;SDS011;57039;48.014;21.384;2023-12-20T03:00:14;26.87;;;12.17;;
69765;SDS011;57039;48.014;21.384;2023-12-20T03:01:17;28.10;;;12.70;;
69765;SDS011;57039;48.014;21.384;2023-12-20T03:02:21;26.73;;;12.07;;
69765;SDS011;57039;48.014;21.384;2023-12-20T03:03:23;29.10;;;12.88;;
69765;SDS011;57039;48.014;21.384;2023-12-20T03:04:26;27.35;;;12.43;;
69765;SDS011;57039;48.014;21.384;2023-12-20T03:05:28;26.30;;;12.15;;
69765;SDS011;57039;48.014;21.384;2023-12-20T03:06:32;26.20;;;12.57;;
69765;SDS011;57039;48.014;21.384;2023-12-20T03:07:36;26.35;;;12.70;;
69765;SDS011;57039;48.014;21.384;2023-12-20T03:08:40;28.77;;;13.93;;
69765;SDS011;57039;48.014;21.384;2023-12-20T03:09:43;28.83;;;13.48;;
69765;SDS011;57039;48.014;21.384;2023-12-20T03:11:06;28.83;;;13.10;;
69765;SDS011;57039;48.014;21.384;2023-12-20T03:12:09;27.05;;;12.80;;
69765;SDS011;57039;48.014;21.384;2023-12-20T03:13:12;28.77;;;13.45;;
69765;SDS011;57039;48.014;21.384;2023-12-20T03:14:15;30.98;;;14.18;;
69765;SDS011;57039;48.014;21.384;2023-12-20T03:15:20;31.67;;;14.32;;
69765;SDS011;57039;48.014;21.384;2023-12-20T03:16:27;27.20;;;13.43;;
69765;SDS011;57039;48.014;21.384;2023-12-20T03:17:36;28.38;;;13.05;;
69765;SDS011;57039;48.014;21.384;2023-12-20T03:18:40;27.65;;;12.70;;
69765;SDS011;57039;48.014;21.384;2023-12-20T03:19:42;30.05;;;14.48;;
69765;SDS011;57039;48.014;21.384;2023-12-20T03:20:45;26.17;;;12.50;;
69765;SDS011;57039;48.014;21.384;2023-12-20T03:21:50;29.53;;;13.07;;
69765;SDS011;57039;48.014;21.384;2023-12-20T03:22:53;27.80;;;13.02;;
69765;SDS011;57039;48.014;21.384;2023-12-20T03:23:57;27.15;;;12.63;;
69765;SDS011;57039;48.014;21.384;2023-12-20T03:25:00;28.58;;;12.65;;
69765;SDS011;57039;48.014;21.384;2023-12-20T03:26:03;29.02;;;13.07;;
69765;SDS011;57039;48.014;21.384;2023-12-20T03:27:08;29.50;;;13.52;;
69765;SDS011;57039;48.014;21.384;2023-12-20T03:28:14;29.77;;;13.52;;
69765;SDS011;57039;48.014;21.384;2023-12-20T03:29:22;29.12;;;14.02;;
69765;SDS011;57039;48.014;21.384;2023-12-20T03:30:25;29.45;;;13.75;;
69765;SDS011;57039;48.014;21.384;2023-12-20T03:31:27;28.27;;;13.50;;
69765;SDS011;57039;48.014;21.384;2023-12-20T03:32:30;26.43;;;12.97;;
69765;SDS011;57039;48.014;21.384;2023-12-20T03:33:33;29.00;;;13.60;;
69765;SDS011;57039;48.014;21.384;2023-12-20T03:34:36;28.58;;;13.18;;
69765;SDS011;57039;48.014;21.384;2023-12-20T03:35:40;26.98;;;13.35;;
69765;SDS011;57039;48.014;21.384;2023-12-20T03:36:43;30.90;;;14.20;;
69765;SDS011;57039;48.014;21.384;2023-12-20T03:37:46;30.00;;;13.62;;
69765;SDS011;57039;48.014;21.384;2023-12-20T03:38:49;28.83;;;13.88;;
69765;SDS011;57039;48.014;21.384;2023-12-20T03:39:52;27.60;;;13.38;;
69765;SDS011;57039;48.014;21.384;2023-12-20T03:40:55;28.45;;;13.82;;
69765;SDS011;57039;48.014;21.384;2023-12-20T03:41:58;27.48;;;13.43;;
69765;SDS011;57039;48.014;21.384;2023-12-20T03:43:01;29.93;;;14.17;;
69765;SDS011;57039;48.014;21.384;2023-12-20T03:44:04;28.35;;;14.05;;
69765;SDS011;57039;48.014;21.384;2023-12-20T03:45:07;28.15;;;13.38;;
69765;SDS011;57039;48.014;21.384;2023-12-20T03:46:10;29.95;;;13.90;;
69765;SDS011;57039;48.014;21.384;2023-12-20T03:47:14;29.40;;;13.90;;
69765;SDS011;57039;48.014;21.384;2023-12-20T03:48:16;29.48;;;13.82;;
69765;SDS011;57039;48.014;21.384;2023-12-20T03:49:19;29.90;;;13.80;;
69765;SDS011;57039;48.014;21.384;2023-12-20T03:50:22;28.30;;;14.07;;
69765;SDS011;57039;48.014;21.384;2023-12-20T03:51:25;27.87;;;13.62;;
69765;SDS011;57039;48.014;21.384;2023-12-20T03:52:28;27.80;;;13.23;;
69765;SDS011;57039;48.014;21.384;2023-12-20T03:53:31;28.20;;;12.63;;
69765;SDS011;57039;48.014;21.384;2023-12-20T03:54:34;29.35;;;13.82;;
69765;SDS011;57039;48.014;21.384;2023-12-20T03:55:38;28.73;;;13.23;;
69765;SDS011;57039;48.014;21.384;2023-12-20T03:56:41;31.27;;;14.10;;
69765;SDS011;57039;48.014;21.384;2023-12-20T03:57:44;34.63;;;15.75;;
69765;SDS011;57039;48.014;21.384;2023-12-20T03:58:47;36.83;;;17.83;;
69765;SDS011;57039;48.014;21.384;2023-12-20T03:59:50;36.03;;;17.27;;
69765;SDS011;57039;48.014;21.384;2023-12-20T04:00:53;39.25;;;19.85;;
69765;SDS011;57039;48.014;21.384;2023-12-20T04:01:56;40.22;;;18.30;;
69765;SDS011;57039;48.014;21.384;2023-12-20T04:02:59;35.28;;;17.83;;
69765;SDS011;57039;48.014;21.384;2023-12-20T04:04:02;37.70;;;18.13;;
69765;SDS011;57039;48.014;21.384;2023-12-20T04:05:05;43.33;;;20.50;;
69765;SDS011;57039;48.014;21.384;2023-12-20T04:06:09;40.90;;;19.10;;
69765;SDS011;57039;48.014;21.384;2023-12-20T04:07:12;37.92;;;18.12;;
69765;SDS011;57039;48.014;21.384;2023-12-20T04:08:15;38.97;;;18.33;;
69765;SDS011;57039;48.014;21.384;2023-12-20T04:09:18;33.20;;;16.62;;
69765;SDS011;57039;48.014;21.384;2023-12-20T04:10:21;37.70;;;16.92;;
69765;SDS011;57039;48.014;21.384;2023-12-20T04:11:24;32.95;;;15.77;;
69765;SDS011;57039;48.014;21.384;2023-12-20T04:12:27;34.28;;;15.68;;
69765;SDS011;57039;48.014;21.384;2023-12-20T04:13:30;34.92;;;15.43;;
69765;SDS011;57039;48.014;21.384;2023-12-20T04:14:35;31.07;;;15.10;;
69765;SDS011;57039;48.014;21.384;2023-12-20T04:15:37;31.85;;;14.80;;
69765;SDS011;57039;48.014;21.384;2023-12-20T04:16:40;32.20;;;13.98;;
69765;SDS011;57039;48.014;21.384;2023-12-20T04:17:48;31.40;;;15.13;;
69765;SDS011;57039;48.014;21.384;2023-12-20T04:18:52;37.15;;;17.12;;
69765;SDS011;57039;48.014;21.384;2023-12-20T04:19:55;38.28;;;17.35;;
69765;SDS011;57039;48.014;21.384;2023-12-20T04:20:58;47.28;;;20.88;;
69765;SDS011;57039;48.014;21.384;2023-12-20T04:22:01;64.37;;;27.98;;
69765;SDS011;57039;48.014;21.384;2023-12-20T04:23:07;66.20;;;29.20;;
69765;SDS011;57039;48.014;21.384;2023-12-20T04:24:10;60.10;;;28.27;;
69765;SDS011;57039;48.014;21.384;2023-12-20T04:25:13;55.53;;;25.93;;
69765;SDS011;57039;48.014;21.384;2023-12-20T04:26:16;58.03;;;26.58;;
69765;SDS011;57039;48.014;21.384;2023-12-20T04:27:18;50.92;;;22.83;;
69765;SDS011;57039;48.014;21.384;2023-12-20T04:28:21;45.22;;;21.70;;
69765;SDS011;57039;48.014;21.384;2023-12-20T04:29:24;43.17;;;20.15;;
69765;SDS011;57039;48.014;21.384;2023-12-20T04:30:27;41.58;;;18.70;;
69765;SDS011;57039;48.014;21.384;2023-12-20T04:31:30;39.83;;;19.08;;
69765;SDS011;57039;48.014;21.384;2023-12-20T04:32:33;35.08;;;16.58;;
69765;SDS011;57039;48.014;21.384;2023-12-20T04:33:36;34.42;;;16.10;;
69765;SDS011;57039;48.014;21.384;2023-12-20T04:34:39;36.55;;;16.60;;
69765;SDS011;57039;48.014;21.384;2023-12-20T04:35:42;32.80;;;15.00;;
69765;SDS011;57039;48.014;21.384;2023-12-20T04:36:45;32.63;;;15.10;;
69765;SDS011;57039;48.014;21.384;2023-12-20T04:37:48;30.75;;;13.95;;
69765;SDS011;57039;48.014;21.384;2023-12-20T04:38:52;31.05;;;13.80;;
69765;SDS011;57039;48.014;21.384;2023-12-20T04:39:56;31.80;;;14.23;;
69765;SDS011;57039;48.014;21.384;2023-12-20T04:40:58;28.38;;;13.40;;
69765;SDS011;57039;48.014;21.384;2023-12-20T04:42:01;29.12;;;12.45;;
69765;SDS011;57039;48.014;21.384;2023-12-20T04:43:04;28.70;;;13.00;;
69765;SDS011;57039;48.014;21.384;2023-12-20T04:44:07;30.85;;;13.55;;
69765;SDS011;57039;48.014;21.384;2023-12-20T04:45:10;29.08;;;13.07;;
69765;SDS011;57039;48.014;21.384;2023-12-20T04:46:15;29.07;;;13.53;;
69765;SDS011;57039;48.014;21.384;2023-12-20T04:47:18;26.60;;;12.75;;
69765;SDS011;57039;48.014;21.384;2023-12-20T04:48:21;28.23;;;12.75;;
69765;SDS011;57039;48.014;21.384;2023-12-20T04:49:24;29.35;;;13.23;;
69765;SDS011;57039;48.014;21.384;2023-12-20T04:50:27;26.12;;;12.65;;
69765;SDS011;57039;48.014;21.384;2023-12-20T04:51:33;26.00;;;12.90;;
69765;SDS011;57039;48.014;21.384;2023-12-20T04:52:36;24.25;;;11.48;;
69765;SDS011;57039;48.014;21.384;2023-12-20T04:53:40;27.05;;;13.43;;
69765;SDS011;57039;48.014;21.384;2023-12-20T04:54:43;27.17;;;12.55;;
69765;SDS011;57039;48.014;21.384;2023-12-20T04:55:46;25.92;;;12.35;;
69765;SDS011;57039;48.014;21.384;2023-12-20T04:56:49;28.63;;;12.70;;
69765;SDS011;57039;48.014;21.384;2023-12-20T04:57:52;24.23;;;11.95;;
69765;SDS011;57039;48.014;21.384;2023-12-20T04:58:55;27.67;;;12.32;;
69765;SDS011;57039;48.014;21.384;2023-12-20T04:59:58;28.95;;;12.52;;
69765;SDS011;57039;48.014;21.384;2023-12-20T05:01:02;24.85;;;12.00;;
69765;SDS011;57039;48.014;21.384;2023-12-20T05:02:08;26.02;;;12.32;;
69765;SDS011;57039;48.014;21.384;2023-12-20T05:03:11;27.02;;;11.88;;
69765;SDS011;57039;48.014;21.384;2023-12-20T05:04:13;24.52;;;11.88;;
69765;SDS011;57039;48.014;21.384;2023-12-20T05:05:16;26.75;;;11.85;;
69765;SDS011;57039;48.014;21.384;2023-12-20T05:06:20;27.05;;;11.65;;
69765;SDS011;57039;48.014;21.384;2023-12-20T05:07:23;24.30;;;11.03;;
69765;SDS011;57039;48.014;21.384;2023-12-20T05:08:26;27.15;;;12.50;;
69765;SDS011;57039;48.014;21.384;2023-12-20T05:09:29;27.13;;;11.90;;
69765;SDS011;57039;48.014;21.384;2023-12-20T05:10:32;26.42;;;12.40;;
69765;SDS011;57039;48.014;21.384;2023-12-20T05:11:34;26.10;;;11.90;;
69765;SDS011;57039;48.014;21.384;2023-12-20T05:12:37;25.35;;;11.52;;
69765;SDS011;57039;48.014;21.384;2023-12-20T05:13:40;25.88;;;12.30;;
69765;SDS011;57039;48.014;21.384;2023-12-20T05:14:51;25.08;;;12.23;;
69765;SDS011;57039;48.014;21.384;2023-12-20T05:15:55;27.80;;;11.85;;
69765;SDS011;57039;48.014;21.384;2023-12-20T05:16:58;25.98;;;12.02;;
69765;SDS011;57039;48.014;21.384;2023-12-20T05:18:01;25.27;;;11.90;;
69765;SDS011;57039;48.014;21.384;2023-12-20T05:19:04;28.60;;;13.62;;
69765;SDS011;57039;48.014;21.384;2023-12-20T05:20:09;31.05;;;13.43;;
69765;SDS011;57039;48.014;21.384;2023-12-20T05:21:13;28.20;;;14.00;;
69765;SDS011;57039;48.014;21.384;2023-12-20T05:22:16;28.65;;;13.50;;
69765;SDS011;57039;48.014;21.384;2023-12-20T05:23:19;27.83;;;13.75;;
69765;SDS011;57039;48.014;21.384;2023-12-20T05:24:22;34.05;;;15.50;;
69765;SDS011;57039;48.014;21.384;2023-12-20T05:25:25;37.30;;;17.87;;
69765;SDS011;57039;48.014;21.384;2023-12-20T05:26:29;38.35;;;18.58;;
69765;SDS011;57039;48.014;21.384;2023-12-20T05:27:33;41.88;;;20.58;;
69765;SDS011;57039;48.014;21.384;2023-12-20T05:28:36;39.60;;;19.27;;
69765;SDS011;57039;48.014;21.384;2023-12-20T05:29:39;41.95;;;20.42;;
69765;SDS011;57039;48.014;21.384;2023-12-20T05:30:41;45.85;;;21.75;;
69765;SDS011;57039;48.014;21.384;2023-12-20T05:31:45;41.55;;;19.98;;
69765;SDS011;57039;48.014;21.384;2023-12-20T05:32:48;43.42;;;21.62;;
69765;SDS011;57039;48.014;21.384;2023-12-20T05:33:51;45.83;;;23.45;;
69765;SDS011;57039;48.014;21.384;2023-12-20T05:34:54;45.05;;;21.73;;
69765;SDS011;57039;48.014;21.384;2023-12-20T05:35:57;50.40;;;23.60;;
69765;SDS011;57039;48.014;21.384;2023-12-20T05:37:00;49.10;;;23.60;;
69765;SDS011;57039;48.014;21.384;2023-12-20T05:38:04;43.95;;;21.92;;
69765;SDS011;57039;48.014;21.384;2023-12-20T05:39:08;41.83;;;20.33;;
69765;SDS011;57039;48.014;21.384;2023-12-20T05:40:11;36.38;;;17.62;;
69765;SDS011;57039;48.014;21.384;2023-12-20T05:41:14;34.40;;;16.87;;
69765;SDS011;57039;48.014;21.384;2023-12-20T05:42:17;34.80;;;17.05;;
69765;SDS011;57039;48.014;21.384;2023-12-20T05:43:20;33.13;;;16.15;;
69765;SDS011;57039;48.014;21.384;2023-12-20T05:44:22;37.70;;;18.80;;
69765;SDS011;57039;48.014;21.384;2023-12-20T05:45:25;41.88;;;20.98;;
69765;SDS011;57039;48.014;21.384;2023-12-20T05:46:28;41.65;;;20.77;;
69765;SDS011;57039;48.014;21.384;2023-12-20T05:47:31;40.72;;;19.77;;
69765;SDS011;57039;48.014;21.384;2023-12-20T05:48:34;38.95;;;18.70;;
69765;SDS011;57039;48.014;21.384;2023-12-20T05:49:37;36.63;;;17.43;;
69765;SDS011;57039;48.014;21.384;2023-12-20T05:50:39;34.22;;;16.90;;
69765;SDS011;57039;48.014;21.384;2023-12-20T05:51:42;34.85;;;15.45;;
69765;SDS011;57039;48.014;21.384;2023-12-20T05:52:45;32.72;;;15.63;;
69765;SDS011;57039;48.014;21.384;2023-12-20T05:53:48;32.55;;;15.73;;
69765;SDS011;57039;48.014;21.384;2023-12-20T05:54:52;29.17;;;15.23;;
69765;SDS011;57039;48.014;21.384;2023-12-20T05:55:55;34.00;;;16.12;;
69765;SDS011;57039;48.014;21.384;2023-12-20T05:56:58;35.00;;;16.52;;
69765;SDS011;57039;48.014;21.384;2023-12-20T05:58:01;34.50;;;16.83;;
69765;SDS011;57039;48.014;21.384;2023-12-20T05:59:04;32.00;;;15.95;;
69765;SDS011;57039;48.014;21.384;2023-12-20T06:00:07;34.27;;;15.20;;
69765;SDS011;57039;48.014;21.384;2023-12-20T06:01:16;31.05;;;14.82;;
69765;SDS011;57039;48.014;21.384;2023-12-20T06:02:20;33.15;;;15.18;;
69765;SDS011;57039;48.014;21.384;2023-12-20T06:03:23;28.92;;;14.63;;
69765;SDS011;57039;48.014;21.384;2023-12-20T06:04:25;30.52;;;14.77;;
69765;SDS011;57039;48.014;21.384;2023-12-20T06:05:28;30.62;;;14.50;;
69765;SDS011;57039;48.014;21.384;2023-12-20T06:06:31;27.27;;;13.65;;